sensor_id;sensor_type;location;lat;lon;timestamp;pressure;altitude;pressure_sealevel;temperature;humidity
3668;BME280;24099;47.102;15.440;2023-02-28T00:01:57;97908.09;;;-0.98;100.00
3668;BME280;24099;47.102;15.440;2023-02-28T00:04:27;97915.84;;;-0.98;100.00
3668;BME280;24099;47.102;15.440;2023-02-28T00:06:55;97911.44;;;-0.96;100.00
3668;BME280;24099;47.102;15.440;2023-02-28T00:09:25;97910.81;;;-0.86;100.00
3668;BME280;24099;47.102;15.440;2023-02-28T00:11:52;97911.16;;;-0.78;100.00
3668;BME280;24099;47.102;15.440;2023-02-28T00:14:22;97915.94;;;-0.72;100.00
3668;BME280;24099;47.102;15.440;2023-02-28T00:16:50;97918.16;;;-0.80;100.00
3668;BME280;24099;47.102;15.440;2023-02-28T00:19:21;97921.31;;;-1.03;100.00
3668;BME280;24099;47.102;15.440;2023-02-28T00:21:49;97919.19;;;-1.11;100.00
3668;BME280;24099;47.102;15.440;2023-02-28T00:24:17;97900.09;;;-1.22;100.00
3668;BME280;24099;47.102;15.440;2023-02-28T00:26:44;97913.75;;;-1.06;100.00
3668;BME280;24099;47.102;15.440;2023-02-28T00:29:12;97913.94;;;-1.09;100.00
3668;BME280;24099;47.102;15.440;2023-02-28T00:31:42;97915.84;;;-1.13;100.00
3668;BME280;24099;47.102;15.440;2023-02-28T00:34:33;97920.94;;;-1.11;100.00
3668;BME280;24099;47.102;15.440;2023-02-28T00:37:10;97915.50;;;-1.07;100.00
3668;BME280;24099;47.102;15.440;2023-02-28T00:39:39;97924.09;;;-1.20;100.00
3668;BME280;24099;47.102;15.440;2023-02-28T00:42:09;97921.69;;;-1.09;100.00
3668;BME280;24099;47.102;15.440;2023-02-28T00:44:37;97923.69;;;-1.14;100.00
3668;BME280;24099;47.102;15.440;2023-02-28T00:47:06;97921.94;;;-1.14;100.00
3668;BME280;24099;47.102;15.440;2023-02-28T00:49:34;97922.41;;;-1.07;100.00
3668;BME280;24099;47.102;15.440;2023-02-28T00:52:02;97921.59;;;-1.08;100.00
3668;BME280;24099;47.102;15.440;2023-02-28T00:54:34;97922.59;;;-1.10;100.00
3668;BME280;24099;47.102;15.440;2023-02-28T00:57:02;97925.75;;;-1.05;100.00
3668;BME280;24099;47.102;15.440;2023-02-28T00:59:32;97921.84;;;-0.98;100.00
3668;BME280;24099;47.102;15.440;2023-02-28T01:02:00;97907.84;;;-0.94;100.00
3668;BME280;24099;47.102;15.440;2023-02-28T01:04:32;97918.09;;;-0.92;100.00
3668;BME280;24099;47.102;15.440;2023-02-28T01:07:01;97916.81;;;-0.85;100.00
3668;BME280;24099;47.102;15.440;2023-02-28T01:09:29;97918.00;;;-0.91;100.00
3668;BME280;24099;47.102;15.440;2023-02-28T01:11:58;97912.56;;;-0.86;100.00
3668;BME280;24099;47.102;15.440;2023-02-28T01:14:29;97912.19;;;-0.94;100.00
3668;BME280;24099;47.102;15.440;2023-02-28T01:16:57;97915.88;;;-0.84;100.00
3668;BME280;24099;47.102;15.440;2023-02-28T01:19:27;97906.91;;;-0.79;100.00
3668;BME280;24099;47.102;15.440;2023-02-28T01:21:56;97906.56;;;-0.87;100.00
3668;BME280;24099;47.102;15.440;2023-02-28T01:24:24;97913.53;;;-0.75;100.00
3668;BME280;24099;47.102;15.440;2023-02-28T01:26:52;97920.19;;;-0.71;100.00
3668;BME280;24099;47.102;15.440;2023-02-28T01:29:21;97914.84;;;-0.67;100.00
3668;BME280;24099;47.102;15.440;2023-02-28T01:31:49;97914.38;;;-0.74;100.00
3668;BME280;24099;47.102;15.440;2023-02-28T01:34:18;97919.75;;;-0.91;100.00
3668;BME280;24099;47.102;15.440;2023-02-28T01:36:46;97911.91;;;-0.90;100.00
3668;BME280;24099;47.102;15.440;2023-02-28T01:39:17;97910.03;;;-0.74;100.00
3668;BME280;24099;47.102;15.440;2023-02-28T01:41:45;97915.31;;;-0.61;100.00
3668;BME280;24099;47.102;15.440;2023-02-28T01:47:18;97911.16;;;-0.63;100.00
3668;BME280;24099;47.102;15.440;2023-02-28T01:49:47;97911.72;;;-0.87;100.00
3668;BME280;24099;47.102;15.440;2023-02-28T01:52:15;97908.19;;;-0.72;100.00
3668;BME280;24099;47.102;15.440;2023-02-28T01:54:50;97900.25;;;-0.68;100.00
3668;BME280;24099;47.102;15.440;2023-02-28T01:57:21;97902.16;;;-0.58;100.00
3668;BME280;24099;47.102;15.440;2023-02-28T01:59:58;97907.81;;;-0.51;100.00
3668;BME280;24099;47.102;15.440;2023-02-28T02:02:40;97902.06;;;-0.56;100.00
3668;BME280;24099;47.102;15.440;2023-02-28T02:05:10;97912.59;;;-0.59;100.00
3668;BME280;24099;47.102;15.440;2023-02-28T02:07:41;97910.13;;;-0.61;100.00
3668;BME280;24099;47.102;15.440;2023-02-28T02:10:14;97917.53;;;-0.69;100.00
3668;BME280;24099;47.102;15.440;2023-02-28T02:13:03;97913.19;;;-0.68;100.00
3668;BME280;24099;47.102;15.440;2023-02-28T02:15:36;97905.91;;;-0.62;100.00
3668;BME280;24099;47.102;15.440;2023-02-28T02:18:18;97907.16;;;-0.55;100.00
3668;BME280;24099;47.102;15.440;2023-02-28T02:27:48;97907.66;;;-0.62;100.00
3668;BME280;24099;47.102;15.440;2023-02-28T02:30:41;97909.84;;;-0.56;100.00
3668;BME280;24099;47.102;15.440;2023-02-28T02:33:39;97899.69;;;-0.59;100.00
3668;BME280;24099;47.102;15.440;2023-02-28T02:36:18;97890.84;;;-0.70;100.00
3668;BME280;24099;47.102;15.440;2023-02-28T02:38:55;97895.28;;;-0.72;100.00
3668;BME280;24099;47.102;15.440;2023-02-28T02:41:33;97903.84;;;-0.71;100.00
3668;BME280;24099;47.102;15.440;2023-02-28T02:44:11;97897.09;;;-0.45;100.00
3668;BME280;24099;47.102;15.440;2023-02-28T02:46:43;97899.13;;;-0.50;100.00
3668;BME280;24099;47.102;15.440;2023-02-28T02:49:16;97893.41;;;-0.55;100.00
3668;BME280;24099;47.102;15.440;2023-02-28T02:51:49;97902.16;;;-0.58;100.00
3668;BME280;24099;47.102;15.440;2023-02-28T02:54:20;97902.16;;;-0.58;100.00
3668;BME280;24099;47.102;15.440;2023-02-28T02:56:51;97908.06;;;-0.56;100.00
3668;BME280;24099;47.102;15.440;2023-02-28T02:59:23;97907.28;;;-0.71;100.00
3668;BME280;24099;47.102;15.440;2023-02-28T03:01:53;97916.31;;;-0.63;100.00
3668;BME280;24099;47.102;15.440;2023-02-28T03:04:24;97913.16;;;-0.54;100.00
3668;BME280;24099;47.102;15.440;2023-02-28T03:06:55;97909.09;;;-0.58;100.00
3668;BME280;24099;47.102;15.440;2023-02-28T03:09:23;97913.00;;;-0.65;100.00
3668;BME280;24099;47.102;15.440;2023-02-28T03:11:54;97907.34;;;-0.58;100.00
3668;BME280;24099;47.102;15.440;2023-02-28T03:14:31;97907.84;;;-0.65;100.00
3668;BME280;24099;47.102;15.440;2023-02-28T03:17:24;97913.66;;;-0.62;100.00
3668;BME280;24099;47.102;15.440;2023-02-28T03:20:01;97908.66;;;-0.65;100.00
3668;BME280;24099;47.102;15.440;2023-02-28T03:22:45;97909.50;;;-0.64;100.00
3668;BME280;24099;47.102;15.440;2023-02-28T03:25:25;97914.66;;;-0.64;100.00
3668;BME280;24099;47.102;15.440;2023-02-28T03:28:02;97913.19;;;-0.68;100.00
3668;BME280;24099;47.102;15.440;2023-02-28T03:30:39;97910.69;;;-0.70;100.00
3668;BME280;24099;47.102;15.440;2023-02-28T03:33:12;97915.13;;;-0.72;100.00
3668;BME280;24099;47.102;15.440;2023-02-28T03:35:46;97914.09;;;-0.70;100.00
3668;BME280;24099;47.102;15.440;2023-02-28T03:38:20;97908.56;;;-0.63;100.00
3668;BME280;24099;47.102;15.440;2023-02-28T03:40:55;97912.97;;;-0.51;100.00
3668;BME280;24099;47.102;15.440;2023-02-28T03:43:29;97914.44;;;-0.47;100.00
3668;BME280;24099;47.102;15.440;2023-02-28T03:45:59;97918.97;;;-0.51;100.00
3668;BME280;24099;47.102;15.440;2023-02-28T03:48:36;97917.69;;;-0.58;100.00
3668;BME280;24099;47.102;15.440;2023-02-28T03:51:09;97919.25;;;-0.55;100.00
3668;BME280;24099;47.102;15.440;2023-02-28T03:53:42;97921.59;;;-0.65;100.00
3668;BME280;24099;47.102;15.440;2023-02-28T03:56:16;97918.44;;;-0.70;100.00
3668;BME280;24099;47.102;15.440;2023-02-28T03:58:51;97917.06;;;-0.61;100.00
3668;BME280;24099;47.102;15.440;2023-02-28T04:01:21;97921.00;;;-0.56;100.00
3668;BME280;24099;47.102;15.440;2023-02-28T04:03:51;97919.75;;;-0.63;100.00
3668;BME280;24099;47.102;15.440;2023-02-28T04:06:21;97921.94;;;-0.57;100.00
3668;BME280;24099;47.102;15.440;2023-02-28T04:08:51;97921.19;;;-0.59;100.00
3668;BME280;24099;47.102;15.440;2023-02-28T04:11:25;97926.34;;;-0.59;100.00
3668;BME280;24099;47.102;15.440;2023-02-28T04:13:55;97925.94;;;-0.65;100.00
3668;BME280;24099;47.102;15.440;2023-02-28T04:16:25;97930.25;;;-0.66;100.00
3668;BME280;24099;47.102;15.440;2023-02-28T04:18:56;97931.09;;;-0.65;100.00
3668;BME280;24099;47.102;15.440;2023-02-28T04:21:29;97929.44;;;-0.66;100.00
3668;BME280;24099;47.102;15.440;2023-02-28T04:23:59;97934.22;;;-0.60;100.00
3668;BME280;24099;47.102;15.440;2023-02-28T04:26:29;97931.66;;;-0.60;100.00
3668;BME280;24099;47.102;15.440;2023-02-28T04:28:58;97934.31;;;-0.48;100.00
3668;BME280;24099;47.102;15.440;2023-02-28T04:31:27;97933.19;;;-0.44;100.00
3668;BME280;24099;47.102;15.440;2023-02-28T04:33:55;97943.44;;;-0.42;100.00
3668;BME280;24099;47.102;15.440;2023-02-28T04:36:23;97944.47;;;-0.45;100.00
3668;BME280;24099;47.102;15.440;2023-02-28T04:38:54;97941.03;;;-0.45;100.00
3668;BME280;24099;47.102;15.440;2023-02-28T04:41:24;97942.41;;;-0.54;100.00
3668;BME280;24099;47.102;15.440;2023-02-28T04:43:54;97944.19;;;-0.54;100.00
3668;BME280;24099;47.102;15.440;2023-02-28T04:46:25;97941.78;;;-0.57;100.00
3668;BME280;24099;47.102;15.440;2023-02-28T04:48:52;97949.16;;;-0.51;100.00
3668;BME280;24099;47.102;15.440;2023-02-28T04:51:23;97954.97;;;-0.48;100.00
3668;BME280;24099;47.102;15.440;2023-02-28T04:53:51;97951.84;;;-0.53;100.00
3668;BME280;24099;47.102;15.440;2023-02-28T04:56:19;97954.16;;;-0.48;100.00
3668;BME280;24099;47.102;15.440;2023-02-28T04:58:49;97951.47;;;-0.47;100.00
3668;BME280;24099;47.102;15.440;2023-02-28T05:01:20;97953.03;;;-0.58;100.00
3668;BME280;24099;47.102;15.440;2023-02-28T05:03:48;97950.19;;;-0.54;100.00
3668;BME280;24099;47.102;15.440;2023-02-28T05:06:16;97944.63;;;-0.48;100.00
3668;BME280;24099;47.102;15.440;2023-02-28T05:08:47;97945.66;;;-0.50;100.00
3668;BME280;24099;47.102;15.440;2023-02-28T05:11:20;97944.00;;;-0.51;100.00
3668;BME280;24099;47.102;15.440;2023-02-28T05:13:50;97942.69;;;-0.58;100.00
3668;BME280;24099;47.102;15.440;2023-02-28T05:16:19;97945.66;;;-0.50;100.00
3668;BME280;24099;47.102;15.440;2023-02-28T05:18:47;97946.66;;;-0.53;100.00
3668;BME280;24099;47.102;15.440;2023-02-28T05:21:39;97946.66;;;-0.53;100.00
3668;BME280;24099;47.102;15.440;2023-02-28T05:24:11;97950.00;;;-0.51;100.00
3668;BME280;24099;47.102;15.440;2023-02-28T05:26:40;97942.41;;;-0.54;100.00
3668;BME280;24099;47.102;15.440;2023-02-28T05:29:10;97939.19;;;-0.43;100.00
3668;BME280;24099;47.102;15.440;2023-02-28T05:31:41;97940.13;;;-0.44;100.00
3668;BME280;24099;47.102;15.440;2023-02-28T05:34:09;97948.78;;;-0.45;100.00
3668;BME280;24099;47.102;15.440;2023-02-28T05:36:41;97943.44;;;-0.42;100.00
3668;BME280;24099;47.102;15.440;2023-02-28T05:39:15;97947.69;;;-0.41;100.00
3668;BME280;24099;47.102;15.440;2023-02-28T05:41:53;97952.94;;;-0.43;100.00
3668;BME280;24099;47.102;15.440;2023-02-28T05:44:25;97954.81;;;-0.45;100.00
3668;BME280;24099;47.102;15.440;2023-02-28T05:46:53;97959.06;;;-0.44;100.00
3668;BME280;24099;47.102;15.440;2023-02-28T05:49:20;97962.06;;;-0.37;100.00
3668;BME280;24099;47.102;15.440;2023-02-28T05:51:48;97965.78;;;-0.41;100.00
3668;BME280;24099;47.102;15.440;2023-02-28T05:54:16;97969.31;;;-0.42;100.00
3668;BME280;24099;47.102;15.440;2023-02-28T05:56:44;97976.69;;;-0.50;100.00
3668;BME280;24099;47.102;15.440;2023-02-28T05:59:15;97967.34;;;-0.53;100.00
3668;BME280;24099;47.102;15.440;2023-02-28T06:01:45;97968.00;;;-0.49;100.00
3668;BME280;24099;47.102;15.440;2023-02-28T06:04:16;97966.91;;;-0.45;100.00
3668;BME280;24099;47.102;15.440;2023-02-28T06:06:50;97973.34;;;-0.38;100.00
3668;BME280;24099;47.102;15.440;2023-02-28T06:09:19;97974.06;;;-0.36;100.00
3668;BME280;24099;47.102;15.440;2023-02-28T06:11:48;97980.81;;;-0.33;100.00
3668;BME280;24099;47.102;15.440;2023-02-28T06:14:17;97979.25;;;-0.36;100.00
3668;BME280;24099;47.102;15.440;2023-02-28T06:16:48;97984.59;;;-0.39;100.00
3668;BME280;24099;47.102;15.440;2023-02-28T06:19:19;97971.50;;;-0.36;100.00
3668;BME280;24099;47.102;15.440;2023-02-28T06:21:59;97988.84;;;-0.24;100.00
3668;BME280;24099;47.102;15.440;2023-02-28T06:24:26;97988.03;;;-0.24;100.00
3668;BME280;24099;47.102;15.440;2023-02-28T06:26:55;97990.59;;;-0.24;100.00
3668;BME280;24099;47.102;15.440;2023-02-28T06:29:25;97999.84;;;-0.35;100.00
3668;BME280;24099;47.102;15.440;2023-02-28T06:31:54;98001.78;;;-0.24;100.00
3668;BME280;24099;47.102;15.440;2023-02-28T06:34:25;97994.75;;;-0.36;100.00
3668;BME280;24099;47.102;15.440;2023-02-28T06:37:00;98007.53;;;-0.47;100.00
3668;BME280;24099;47.102;15.440;2023-02-28T06:39:31;98004.56;;;-0.41;100.00
3668;BME280;24099;47.102;15.440;2023-02-28T06:42:01;98009.44;;;-0.37;100.00
3668;BME280;24099;47.102;15.440;2023-02-28T06:44:29;98010.09;;;-0.33;100.00
3668;BME280;24099;47.102;15.440;2023-02-28T06:47:03;98017.50;;;-0.27;100.00
3668;BME280;24099;47.102;15.440;2023-02-28T06:52:15;98023.75;;;-0.31;100.00
3668;BME280;24099;47.102;15.440;2023-02-28T06:54:43;98023.22;;;-0.22;100.00
3668;BME280;24099;47.102;15.440;2023-02-28T06:57:11;98019.72;;;-0.21;100.00
3668;BME280;24099;47.102;15.440;2023-02-28T06:59:39;98017.31;;;-0.24;100.00
3668;BME280;24099;47.102;15.440;2023-02-28T07:02:08;98024.47;;;-0.15;100.00
3668;BME280;24099;47.102;15.440;2023-02-28T07:04:39;98024.91;;;0.06;100.00
3668;BME280;24099;47.102;15.440;2023-02-28T07:07:10;98026.66;;;0.06;100.00
3668;BME280;24099;47.102;15.440;2023-02-28T07:09:38;98019.41;;;-0.02;100.00
3668;BME280;24099;47.102;15.440;2023-02-28T07:12:06;98023.38;;;-0.11;100.00
3668;BME280;24099;47.102;15.440;2023-02-28T07:14:42;98026.16;;;-0.14;100.00
3668;BME280;24099;47.102;15.440;2023-02-28T07:17:11;98024.47;;;-0.15;100.00
3668;BME280;24099;47.102;15.440;2023-02-28T07:19:39;98026.59;;;-0.07;100.00
3668;BME280;24099;47.102;15.440;2023-02-28T07:22:07;98027.59;;;0.05;100.00
3668;BME280;24099;47.102;15.440;2023-02-28T07:24:36;98029.75;;;-0.02;100.00
3668;BME280;24099;47.102;15.440;2023-02-28T07:27:10;98031.88;;;-0.09;100.00
3668;BME280;24099;47.102;15.440;2023-02-28T07:29:38;98034.47;;;-0.09;100.00
3668;BME280;24099;47.102;15.440;2023-02-28T07:32:10;98030.09;;;0.06;100.00
3668;BME280;24099;47.102;15.440;2023-02-28T07:34:56;98033.13;;;0.13;100.00
3668;BME280;24099;47.102;15.440;2023-02-28T07:37:25;98032.81;;;-0.10;100.00
3668;BME280;24099;47.102;15.440;2023-02-28T07:39:52;98040.94;;;-0.02;100.00
3668;BME280;24099;47.102;15.440;2023-02-28T07:42:23;98032.25;;;-0.01;100.00
3668;BME280;24099;47.102;15.440;2023-02-28T07:44:59;98040.00;;;-0.01;100.00
3668;BME280;24099;47.102;15.440;2023-02-28T07:47:29;98045.53;;;0.08;100.00
3668;BME280;24099;47.102;15.440;2023-02-28T07:49:57;98047.63;;;0.15;100.00
3668;BME280;24099;47.102;15.440;2023-02-28T07:52:25;98045.09;;;0.28;100.00
3668;BME280;24099;47.102;15.440;2023-02-28T07:54:53;98046.06;;;0.13;100.00
3668;BME280;24099;47.102;15.440;2023-02-28T07:57:24;98050.50;;;0.11;100.00
3668;BME280;24099;47.102;15.440;2023-02-28T07:59:52;98051.41;;;0.24;100.00
3668;BME280;24099;47.102;15.440;2023-02-28T08:02:20;98047.91;;;0.11;100.00
3668;BME280;24099;47.102;15.440;2023-02-28T08:04:53;98040.94;;;0.25;100.00
3668;BME280;24099;47.102;15.440;2023-02-28T08:07:22;98051.81;;;0.45;100.00
3668;BME280;24099;47.102;15.440;2023-02-28T08:09:50;98042.28;;;0.45;100.00
3668;BME280;24099;47.102;15.440;2023-02-28T08:12:18;98052.03;;;0.27;100.00
3668;BME280;24099;47.102;15.440;2023-02-28T08:14:46;98057.41;;;0.24;100.00
3668;BME280;24099;47.102;15.440;2023-02-28T08:17:14;98053.56;;;0.44;100.00
3668;BME280;24099;47.102;15.440;2023-02-28T08:19:46;98049.75;;;0.50;100.00
3668;BME280;24099;47.102;15.440;2023-02-28T08:22:17;98049.06;;;0.60;100.00
3668;BME280;24099;47.102;15.440;2023-02-28T08:25:10;98052.22;;;0.24;100.00
3668;BME280;24099;47.102;15.440;2023-02-28T08:27:40;98058.03;;;0.28;100.00
3668;BME280;24099;47.102;15.440;2023-02-28T08:30:09;98055.78;;;0.50;100.00
3668;BME280;24099;47.102;15.440;2023-02-28T08:32:38;98054.97;;;0.62;100.00
3668;BME280;24099;47.102;15.440;2023-02-28T08:35:06;98050.72;;;0.61;100.00
3668;BME280;24099;47.102;15.440;2023-02-28T08:37:42;98052.44;;;0.48;100.00
3668;BME280;24099;47.102;15.440;2023-02-28T08:40:11;98054.19;;;0.48;100.00
3668;BME280;24099;47.102;15.440;2023-02-28T08:42:44;98053.72;;;0.55;100.00
3668;BME280;24099;47.102;15.440;2023-02-28T08:45:12;98057.81;;;0.72;100.00
3668;BME280;24099;47.102;15.440;2023-02-28T08:47:40;98057.44;;;0.78;100.00
3668;BME280;24099;47.102;15.440;2023-02-28T08:50:14;98051.63;;;0.75;100.00
3668;BME280;24099;47.102;15.440;2023-02-28T08:52:47;98058.22;;;0.39;100.00
3668;BME280;24099;47.102;15.440;2023-02-28T08:55:15;98060.03;;;0.51;100.00
3668;BME280;24099;47.102;15.440;2023-02-28T08:57:45;98056.13;;;0.58;100.00
3668;BME280;24099;47.102;15.440;2023-02-28T09:00:14;98058.00;;;0.69;100.00
3668;BME280;24099;47.102;15.440;2023-02-28T09:02:42;98059.53;;;0.59;100.00
3668;BME280;24099;47.102;15.440;2023-02-28T09:05:15;98059.56;;;0.72;100.00
3668;BME280;24099;47.102;15.440;2023-02-28T09:07:43;98068.44;;;0.55;100.00
3668;BME280;24099;47.102;15.440;2023-02-28T09:10:13;98063.09;;;0.71;100.00
3668;BME280;24099;47.102;15.440;2023-02-28T09:12:43;98067.34;;;0.72;100.00
3668;BME280;24099;47.102;15.440;2023-02-28T09:15:14;98061.47;;;0.82;100.00
3668;BME280;24099;47.102;15.440;2023-02-28T09:17:42;98067.34;;;1.11;100.00
3668;BME280;24099;47.102;15.440;2023-02-28T09:20:11;98063.19;;;0.96;100.00
3668;BME280;24099;47.102;15.440;2023-02-28T09:22:41;98062.94;;;0.86;100.00
3668;BME280;24099;47.102;15.440;2023-02-28T09:25:12;98062.25;;;0.97;100.00
3668;BME280;24099;47.102;15.440;2023-02-28T09:27:40;98065.88;;;1.07;100.00
3668;BME280;24099;47.102;15.440;2023-02-28T09:30:09;98065.09;;;1.19;100.00
3668;BME280;24099;47.102;15.440;2023-02-28T09:33:00;98076.13;;;0.96;100.00
3668;BME280;24099;47.102;15.440;2023-02-28T09:35:28;98071.44;;;0.88;100.00
3668;BME280;24099;47.102;15.440;2023-02-28T09:37:59;98068.41;;;0.82;100.00
3668;BME280;24099;47.102;15.440;2023-02-28T09:40:31;98073.03;;;1.03;100.00
3668;BME280;24099;47.102;15.440;2023-02-28T09:43:00;98063.69;;;1.01;100.00
3668;BME280;24099;47.102;15.440;2023-02-28T09:45:45;98068.38;;;1.09;100.00
3668;BME280;24099;47.102;15.440;2023-02-28T09:48:20;98063.44;;;1.18;100.00
3668;BME280;24099;47.102;15.440;2023-02-28T09:50:51;98073.16;;;1.27;100.00
3668;BME280;24099;47.102;15.440;2023-02-28T09:53:22;98072.03;;;1.31;100.00
3668;BME280;24099;47.102;15.440;2023-02-28T09:55:58;98066.97;;;1.30;100.00
3668;BME280;24099;47.102;15.440;2023-02-28T09:58:31;98061.75;;;1.43;100.00
3668;BME280;24099;47.102;15.440;2023-02-28T10:01:09;98063.72;;;1.26;100.00
3668;BME280;24099;47.102;15.440;2023-02-28T10:03:38;98066.84;;;1.44;100.00
3668;BME280;24099;47.102;15.440;2023-02-28T10:06:14;98066.66;;;1.34;100.00
3668;BME280;24099;47.102;15.440;2023-02-28T10:08:51;98061.16;;;1.52;100.00
3668;BME280;24099;47.102;15.440;2023-02-28T10:11:21;98061.88;;;1.66;100.00
3668;BME280;24099;47.102;15.440;2023-02-28T10:13:53;98067.28;;;1.76;100.00
3668;BME280;24099;47.102;15.440;2023-02-28T10:16:31;98064.88;;;1.73;100.00
3668;BME280;24099;47.102;15.440;2023-02-28T10:19:04;98059.69;;;1.73;100.00
3668;BME280;24099;47.102;15.440;2023-02-28T10:21:38;98058.38;;;1.55;100.00
3668;BME280;24099;47.102;15.440;2023-02-28T10:24:19;98065.69;;;1.86;100.00
3668;BME280;24099;47.102;15.440;2023-02-28T10:26:51;98053.56;;;1.74;100.00
3668;BME280;24099;47.102;15.440;2023-02-28T10:29:22;98053.34;;;1.90;100.00
3668;BME280;24099;47.102;15.440;2023-02-28T10:31:50;98055.59;;;2.07;100.00
3668;BME280;24099;47.102;15.440;2023-02-28T10:34:25;98050.28;;;1.59;100.00
3668;BME280;24099;47.102;15.440;2023-02-28T10:36:53;98048.81;;;1.55;100.00
3668;BME280;24099;47.102;15.440;2023-02-28T10:39:39;98046.38;;;1.90;100.00
3668;BME280;24099;47.102;15.440;2023-02-28T10:42:22;98046.81;;;1.97;100.00
3668;BME280;24099;47.102;15.440;2023-02-28T10:45:12;98042.13;;;1.89;100.00
3668;BME280;24099;47.102;15.440;2023-02-28T10:47:51;98031.00;;;2.36;100.00
3668;BME280;24099;47.102;15.440;2023-02-28T10:50:34;98030.19;;;2.36;100.00
3668;BME280;24099;47.102;15.440;2023-02-28T10:53:28;98024.91;;;2.49;100.00
3668;BME280;24099;47.102;15.440;2023-02-28T10:56:00;98028.06;;;2.65;100.00
3668;BME280;24099;47.102;15.440;2023-02-28T10:58:32;98030.38;;;2.81;100.00
3668;BME280;24099;47.102;15.440;2023-02-28T11:01:14;98026.69;;;2.48;100.00
3668;BME280;24099;47.102;15.440;2023-02-28T11:03:50;98024.81;;;2.50;100.00
3668;BME280;24099;47.102;15.440;2023-02-28T11:06:21;98018.06;;;2.71;100.00
3668;BME280;24099;47.102;15.440;2023-02-28T11:08:55;98022.47;;;2.82;100.00
3668;BME280;24099;47.102;15.440;2023-02-28T11:11:26;98019.44;;;2.64;100.00
3668;BME280;24099;47.102;15.440;2023-02-28T11:14:04;98017.41;;;2.57;100.00
3668;BME280;24099;47.102;15.440;2023-02-28T11:16:37;98011.19;;;2.70;100.00
3668;BME280;24099;47.102;15.440;2023-02-28T11:19:20;98010.97;;;3.08;100.00
3668;BME280;24099;47.102;15.440;2023-02-28T11:21:55;98007.81;;;3.16;100.00
3668;BME280;24099;47.102;15.440;2023-02-28T11:24:27;97997.28;;;3.18;100.00
3668;BME280;24099;47.102;15.440;2023-02-28T11:26:56;98004.28;;;3.28;100.00
3668;BME280;24099;47.102;15.440;2023-02-28T11:29:27;97996.94;;;3.33;100.00
3668;BME280;24099;47.102;15.440;2023-02-28T11:32:20;97990.66;;;3.14;100.00
3668;BME280;24099;47.102;15.440;2023-02-28T11:35:01;97991.25;;;3.17;100.00
3668;BME280;24099;47.102;15.440;2023-02-28T11:37:31;97989.00;;;3.13;100.00
3668;BME280;24099;47.102;15.440;2023-02-28T11:40:05;97967.59;;;3.20;100.00
3668;BME280;24099;47.102;15.440;2023-02-28T11:42:43;97985.00;;;3.31;99.68
3668;BME280;24099;47.102;15.440;2023-02-28T11:45:28;97977.06;;;3.43;99.03
3668;BME280;24099;47.102;15.440;2023-02-28T11:48:18;97965.72;;;3.44;98.41
3668;BME280;24099;47.102;15.440;2023-02-28T11:51:04;97974.72;;;3.29;100.00
3668;BME280;24099;47.102;15.440;2023-02-28T11:53:50;97976.25;;;3.43;100.00
3668;BME280;24099;47.102;15.440;2023-02-28T11:56:22;97971.88;;;3.66;100.00
3668;BME280;24099;47.102;15.440;2023-02-28T11:58:59;97983.59;;;3.60;100.00
3668;BME280;24099;47.102;15.440;2023-02-28T12:02:05;97969.56;;;2.94;100.00
3668;BME280;24099;47.102;15.440;2023-02-28T12:04:48;97972.56;;;3.12;100.00
3668;BME280;24099;47.102;15.440;2023-02-28T12:07:28;97963.81;;;3.13;100.00
3668;BME280;24099;47.102;15.440;2023-02-28T12:10:00;97963.25;;;3.54;100.00
3668;BME280;24099;47.102;15.440;2023-02-28T12:12:41;97960.25;;;3.81;100.00
3668;BME280;24099;47.102;15.440;2023-02-28T12:18:35;97954.34;;;3.90;99.51
3668;BME280;24099;47.102;15.440;2023-02-28T12:21:14;97950.19;;;3.99;99.83
3668;BME280;24099;47.102;15.440;2023-02-28T12:26:39;97951.34;;;4.06;98.16
3668;BME280;24099;47.102;15.440;2023-02-28T12:29:13;97941.59;;;3.76;96.33
3668;BME280;24099;47.102;15.440;2023-02-28T12:31:46;97945.13;;;3.64;99.90
3668;BME280;24099;47.102;15.440;2023-02-28T12:34:21;97941.00;;;3.61;100.00
3668;BME280;24099;47.102;15.440;2023-02-28T12:36:54;97945.84;;;3.66;100.00
3668;BME280;24099;47.102;15.440;2023-02-28T12:39:49;97937.94;;;3.78;100.00
3668;BME280;24099;47.102;15.440;2023-02-28T12:42:24;97930.44;;;3.85;100.00
3668;BME280;24099;47.102;15.440;2023-02-28T12:44:58;97932.69;;;3.90;100.00
3668;BME280;24099;47.102;15.440;2023-02-28T12:47:26;97933.28;;;3.93;99.79
3668;BME280;24099;47.102;15.440;2023-02-28T12:49:58;97925.94;;;3.98;100.00
3668;BME280;24099;47.102;15.440;2023-02-28T12:52:37;97929.50;;;3.86;100.00
3668;BME280;24099;47.102;15.440;2023-02-28T12:55:15;97931.28;;;3.86;99.49
3668;BME280;24099;47.102;15.440;2023-02-28T12:57:50;97929.84;;;3.93;98.84
3668;BME280;24099;47.102;15.440;2023-02-28T13:00:25;97927.13;;;3.83;100.00
3668;BME280;24099;47.102;15.440;2023-02-28T13:03:32;97923.53;;;4.06;100.00
3668;BME280;24099;47.102;15.440;2023-02-28T13:06:37;97923.38;;;3.20;100.00
3668;BME280;24099;47.102;15.440;2023-02-28T13:09:15;97910.19;;;3.89;100.00
3668;BME280;24099;47.102;15.440;2023-02-28T13:11:55;97908.03;;;4.05;100.00
3668;BME280;24099;47.102;15.440;2023-02-28T13:14:27;97913.09;;;4.18;100.00
3668;BME280;24099;47.102;15.440;2023-02-28T13:16:59;97911.63;;;4.25;100.00
3668;BME280;24099;47.102;15.440;2023-02-28T13:19:30;97914.34;;;4.23;100.00
3668;BME280;24099;47.102;15.440;2023-02-28T13:22:00;97906.56;;;4.44;100.00
3668;BME280;24099;47.102;15.440;2023-02-28T13:24:47;97912.91;;;3.98;100.00
3668;BME280;24099;47.102;15.440;2023-02-28T13:27:36;97913.63;;;4.32;100.00
3668;BME280;24099;47.102;15.440;2023-02-28T13:33:26;97899.25;;;4.17;99.45
3668;BME280;24099;47.102;15.440;2023-02-28T13:36:08;97906.63;;;4.33;100.00
3668;BME280;24099;47.102;15.440;2023-02-28T13:38:40;97898.91;;;4.10;98.90
3668;BME280;24099;47.102;15.440;2023-02-28T13:41:46;97897.88;;;4.23;100.00
3668;BME280;24099;47.102;15.440;2023-02-28T13:44:16;97891.75;;;3.80;100.00
3668;BME280;24099;47.102;15.440;2023-02-28T13:49:51;97890.53;;;4.28;100.00
3668;BME280;24099;47.102;15.440;2023-02-28T13:52:24;97890.13;;;4.11;100.00